Terminal Aerodrome Forecast
Issued by NWS

Home | Current Version | Previous Version | Text Only | Print | Product List | Glossary On
Versions: 1 2 3 4 5 6 7 8 9 10 11 12 13 14 15 16 17 18 19
000
FTUS41 KBOX 220527
TAFHYA
TAF
KHYA 220527Z 2206/2306 25005KT 1/4SM FG OVC002
     FM221000 VRB03KT 1/2SM FG OVC002
     FM221300 03005KT 3/4SM BR OVC003
     FM221500 03005KT 3SM BR OVC003
     FM221900 05009KT P6SM OVC008
     FM230400 06014G26KT P6SM OVC015=

USA.gov is the U.S. government's official web portal to all federal, state and local government web resources and services.